Time;durP1;ratioP1;P1;durP2;ratioP2;P2;SDS_P1;SDS_P2;PMS_P1;PMS_P2;Temp;Humidity;BMP_temperature;BMP_pressure;BME280_temperature;BME280_humidity;BME280_pressure;Samples;Min_cycle;Max_cycle;Signal;HPM_P1;HPM_P2
2021/08/06 05:27:18;;;;;;;8.80;3.78;;;;;;;;;;5205440;23;20068;-78
2021/08/06 05:29:43;;;;;;;30.90;15.20;;;;;;;;;;4900368;29;20036;-78
2021/08/06 05:32:09;;;;;;;10.98;4.85;;;;;;;;;;4918892;29;20035;-79
2021/08/06 05:34:34;;;;;;;6.32;2.47;;;;;;;;;;4920606;29;20059;-78
2021/08/06 05:36:59;;;;;;;2.90;1.95;;;;;;;;;;4920712;29;20035;-78
2021/08/06 05:39:25;;;;;;;2.10;1.25;;;;;;;;;;4920657;29;20382;-78
2021/08/06 05:41:50;;;;;;;4.28;1.40;;;;;;;;;;4920414;29;20036;-79
2021/08/06 05:44:16;;;;;;;2.83;1.58;;;;;;;;;;4920682;29;20032;-78
2021/08/06 05:46:41;;;;;;;2.42;1.70;;;;;;;;;;4920010;29;20505;-79
2021/08/06 05:49:07;;;;;;;3.67;1.10;;;;;;;;;;4920521;29;20440;-80
2021/08/06 05:51:32;;;;;;;2.42;1.10;;;;;;;;;;4920447;29;20040;-80
2021/08/06 05:53:57;;;;;;;3.38;1.10;;;;;;;;;;4920436;29;20445;-80
2021/08/06 05:56:23;;;;;;;1.50;0.98;;;;;;;;;;4920353;29;20645;-78
2021/08/06 05:58:48;;;;;;;6.20;1.40;;;;;;;;;;4920247;29;20479;-79
2021/08/06 06:01:14;;;;;;;1.98;1.35;;;;;;;;;;4903207;29;20114;-80
2021/08/06 06:03:39;;;;;;;1.88;1.17;;;;;;;;;;4920294;29;20044;-80
2021/08/06 06:06:04;;;;;;;1.20;1.10;;;;;;;;;;4914353;29;20024;-79
2021/08/06 06:08:30;;;;;;;2.63;1.27;;;;;;;;;;4901100;29;20032;-79
2021/08/06 06:10:55;;;;;;;1.90;1.10;;;;;;;;;;4900872;29;20345;-79
2021/08/06 06:13:21;;;;;;;1.20;1.10;;;;;;;;;;4900919;29;20039;-79
2021/08/06 06:15:46;;;;;;;4.18;1.83;;;;;;;;;;4901160;29;20494;-86
2021/08/06 06:18:12;;;;;;;3.20;1.60;;;;;;;;;;4900700;29;20029;-81
2021/08/06 06:20:38;;;;;;;2.75;1.20;;;;;;;;;;4901055;29;20496;-82
2021/08/06 06:23:04;;;;;;;2.20;1.30;;;;;;;;;;4900877;29;20032;-82
2021/08/06 06:25:29;;;;;;;2.50;0.90;;;;;;;;;;4900676;29;20437;-81
2021/08/06 06:27:57;;;;;;;1.27;1.17;;;;;;;;;;4900857;29;20052;-81
2021/08/06 06:30:25;;;;;;;2.30;0.90;;;;;;;;;;4900981;29;20033;-82
2021/08/06 06:32:56;;;;;;;2.45;1.10;;;;;;;;;;4900639;29;20036;-81
2021/08/06 06:35:22;;;;;;;1.80;1.10;;;;;;;;;;4900661;29;20033;-80
2021/08/06 06:37:48;;;;;;;1.52;1.27;;;;;;;;;;4901092;29;20028;-79
2021/08/06 06:40:15;;;;;;;3.03;1.02;;;;;;;;;;4884006;29;20468;-75
2021/08/06 06:42:40;;;;;;;1.70;1.20;;;;;;;;;;4900579;29;20028;-77
2021/08/06 06:45:07;;;;;;;2.30;1.00;;;;;;;;;;4900364;29;20392;-76
2021/08/06 06:47:37;;;;;;;1.23;1.10;;;;;;;;;;4900630;29;20029;-75
2021/08/06 06:50:03;;;;;;;1.85;0.90;;;;;;;;;;4900469;29;20484;-77
2021/08/06 06:52:28;;;;;;;3.13;0.90;;;;;;;;;;4900463;29;20024;-77
2021/08/06 06:54:54;;;;;;;1.33;1.10;;;;;;;;;;4900465;29;20025;-75
2021/08/06 06:57:19;;;;;;;2.33;0.90;;;;;;;;;;4900250;29;20472;-76
2021/08/06 06:59:44;;;;;;;1.73;1.13;;;;;;;;;;4900099;29;20048;-74
2021/08/06 07:02:10;;;;;;;3.22;1.20;;;;;;;;;;4900109;29;20032;-76
2021/08/06 07:04:35;;;;;;;1.00;0.90;;;;;;;;;;4900197;29;20075;-78
2021/08/06 07:07:01;;;;;;;3.05;1.30;;;;;;;;;;4900197;29;20076;-79
2021/08/06 07:48:04;;;;;;;3.88;1.10;;;;;;;;;;4961952;23;20097;-79
2021/08/06 07:50:30;;;;;;;3.33;1.30;;;;;;;;;;4880840;29;20044;-78
2021/08/06 07:52:55;;;;;;;5.30;1.70;;;;;;;;;;4880613;29;20037;-79
2021/08/06 07:55:21;;;;;;;2.50;1.23;;;;;;;;;;4879971;29;20379;-79
2021/08/06 07:57:46;;;;;;;1.90;1.10;;;;;;;;;;4880535;29;20385;-80
2021/08/06 08:00:12;;;;;;;2.63;1.13;;;;;;;;;;4880303;29;20029;-86
2021/08/06 08:02:38;;;;;;;5.18;1.27;;;;;;;;;;4881202;29;20132;-81
2021/08/06 08:05:05;;;;;;;3.17;1.20;;;;;;;;;;4880515;29;20496;-80
2021/08/06 08:07:30;;;;;;;3.97;1.38;;;;;;;;;;4880528;29;20064;-80
2021/08/06 08:09:56;;;;;;;2.22;1.27;;;;;;;;;;4880563;29;20464;-81
2021/08/06 08:12:21;;;;;;;9.93;1.50;;;;;;;;;;4880278;29;20051;-79
2021/08/06 08:14:48;;;;;;;4.10;1.10;;;;;;;;;;4880051;29;20029;-80
2021/08/06 08:17:15;;;;;;;4.00;1.27;;;;;;;;;;4880439;29;20036;-81
2021/08/06 08:19:41;;;;;;;1.48;1.00;;;;;;;;;;4880603;29;20036;-85
2021/08/06 08:22:06;;;;;;;1.50;1.20;;;;;;;;;;4863415;29;20033;-81
2021/08/06 08:24:32;;;;;;;3.00;1.17;;;;;;;;;;4880129;29;20085;-81
2021/08/06 08:26:58;;;;;;;1.33;1.05;;;;;;;;;;4880080;29;20032;-81
2021/08/06 08:29:23;;;;;;;3.33;1.50;;;;;;;;;;4880212;29;20033;-82
2021/08/06 08:31:49;;;;;;;1.58;1.10;;;;;;;;;;4880321;29;20037;-82
2021/08/06 08:34:14;;;;;;;1.27;0.90;;;;;;;;;;4880471;29;20108;-89
2021/08/06 08:36:40;;;;;;;2.38;0.95;;;;;;;;;;4863746;29;20033;-79
2021/08/06 08:39:05;;;;;;;5.80;1.13;;;;;;;;;;4880172;29;20112;-80
2021/08/06 08:41:31;;;;;;;2.90;1.05;;;;;;;;;;4879924;29;20071;-82
2021/08/06 08:43:57;;;;;;;11.95;1.67;;;;;;;;;;4880431;29;20556;-74
2021/08/06 08:46:29;;;;;;;7.93;1.35;;;;;;;;;;4879847;29;20073;-76
2021/08/06 08:48:57;;;;;;;11.65;1.88;;;;;;;;;;4880036;29;20032;-81
2021/08/06 08:51:25;;;;;;;4.03;1.23;;;;;;;;;;4879752;29;20085;-80
2021/08/06 08:53:51;;;;;;;1.38;1.00;;;;;;;;;;4880008;29;20138;-76
2021/08/06 08:56:16;;;;;;;1.27;1.08;;;;;;;;;;4879851;29;20477;-78
2021/08/06 08:58:42;;;;;;;2.50;0.93;;;;;;;;;;4863199;29;20036;-78
2021/08/06 09:01:07;;;;;;;2.00;1.10;;;;;;;;;;4879836;29;20029;-81
2021/08/06 09:03:46;;;;;;;1.40;1.30;;;;;;;;;;4879902;29;20033;-90
2021/08/06 09:06:12;;;;;;;1.33;1.20;;;;;;;;;;4882366;29;20041;-84
2021/08/06 09:08:38;;;;;;;2.67;1.13;;;;;;;;;;4883621;29;20496;-76
2021/08/06 09:11:25;;;;;;;1.73;0.90;;;;;;;;;;4883869;29;20500;-75
2021/08/06 09:13:50;;;;;;;1.45;1.02;;;;;;;;;;4883670;29;20048;-75
2021/08/06 09:16:16;;;;;;;4.05;1.42;;;;;;;;;;4887182;29;20084;-96
2021/08/06 09:18:42;;;;;;;2.10;1.30;;;;;;;;;;4889401;29;20052;-76
2021/08/06 09:21:16;;;;;;;2.85;1.25;;;;;;;;;;4885164;29;20377;-83
2021/08/06 09:23:45;;;;;;;4.13;0.93;;;;;;;;;;4887463;29;20044;-76
2021/08/06 09:26:34;;;;;;;1.93;1.20;;;;;;;;;;4886587;29;20071;-89
2021/08/06 09:29:18;;;;;;;3.05;1.17;;;;;;;;;;4883560;29;20503;-87
2021/08/06 09:31:52;;;;;;;1.58;1.10;;;;;;;;;;4883205;29;20021;-91
2021/08/06 09:34:26;;;;;;;1.38;1.20;;;;;;;;;;4883199;29;20393;-91
2021/08/06 09:37:06;;;;;;;5.35;1.13;;;;;;;;;;4883153;29;20032;-81
2021/08/06 09:39:48;;;;;;;3.63;1.30;;;;;;;;;;4883235;29;20044;-76
2021/08/06 09:42:26;;;;;;;2.70;1.10;;;;;;;;;;4882967;29;20060;-88
2021/08/06 09:45:14;;;;;;;3.03;1.45;;;;;;;;;;4883127;29;20033;-86
2021/08/06 09:47:40;;;;;;;2.10;1.23;;;;;;;;;;4882819;29;20037;-83
2021/08/06 09:50:08;;;;;;;1.58;1.25;;;;;;;;;;4882916;29;20500;-85
2021/08/06 09:52:36;;;;;;;5.55;1.40;;;;;;;;;;4882661;29;20028;-76
2021/08/06 09:55:05;;;;;;;1.88;1.20;;;;;;;;;;4882469;29;20029;-77
2021/08/06 09:57:30;;;;;;;2.65;1.45;;;;;;;;;;4865860;29;20056;-85
2021/08/06 09:59:57;;;;;;;2.72;1.42;;;;;;;;;;4882649;29;20091;-86
2021/08/06 10:02:32;;;;;;;4.05;1.63;;;;;;;;;;4882274;29;20049;-76
2021/08/06 10:05:09;;;;;;;2.70;2.05;;;;;;;;;;4882527;29;20037;-76
2021/08/06 10:07:46;;;;;;;1.35;1.25;;;;;;;;;;4882403;29;20115;-80
2021/08/06 10:10:19;;;;;;;1.30;1.20;;;;;;;;;;4882461;29;20036;-81
2021/08/06 10:12:45;;;;;;;1.98;1.40;;;;;;;;;;4882140;29;20035;-81
2021/08/06 10:15:11;;;;;;;2.28;1.20;;;;;;;;;;4882520;29;20104;-80
2021/08/06 10:17:37;;;;;;;3.08;1.33;;;;;;;;;;4881523;29;20029;-83
2021/08/06 10:20:05;;;;;;;1.92;1.27;;;;;;;;;;4882316;29;20029;-81
2021/08/06 10:22:31;;;;;;;2.53;1.40;;;;;;;;;;4882303;29;20483;-81
2021/08/06 10:24:57;;;;;;;1.40;1.10;;;;;;;;;;4882258;29;20033;-86
2021/08/06 10:27:26;;;;;;;4.72;2.28;;;;;;;;;;4865351;29;20025;-83
2021/08/06 10:30:11;;;;;;;4.25;1.80;;;;;;;;;;4865400;29;20445;-84
2021/08/06 10:32:38;;;;;;;7.03;2.17;;;;;;;;;;4881693;29;20079;-81
2021/08/06 10:35:14;;;;;;;2.72;1.52;;;;;;;;;;4881909;29;20069;-87
2021/08/06 10:37:54;;;;;;;1.60;1.30;;;;;;;;;;4882290;29;20033;-81
2021/08/06 10:40:32;;;;;;;3.47;1.52;;;;;;;;;;4881843;29;20077;-81
2021/08/06 10:43:18;;;;;;;2.35;1.75;;;;;;;;;;4881876;29;20085;-81
2021/08/06 10:45:49;;;;;;;3.10;1.40;;;;;;;;;;4868616;29;20041;-81
2021/08/06 10:48:33;;;;;;;1.10;1.00;;;;;;;;;;4864788;29;20057;-82
2021/08/06 10:51:20;;;;;;;1.33;1.20;;;;;;;;;;4881510;29;20033;-86
2021/08/06 10:54:09;;;;;;;8.00;2.00;;;;;;;;;;4881319;29;20036;-81
2021/08/06 10:56:37;;;;;;;1.30;1.20;;;;;;;;;;4871529;29;20037;-80
2021/08/06 10:59:14;;;;;;;1.40;1.30;;;;;;;;;;4881511;29;20036;-80
2021/08/06 11:01:43;;;;;;;3.45;1.40;;;;;;;;;;4881355;29;20052;-79
2021/08/06 11:04:15;;;;;;;1.05;1.05;;;;;;;;;;4881391;29;20025;-79
2021/08/06 11:06:49;;;;;;;1.30;1.20;;;;;;;;;;4864709;29;20044;-79
2021/08/06 11:09:26;;;;;;;2.83;1.40;;;;;;;;;;4881728;29;20064;-82
2021/08/06 11:12:07;;;;;;;2.55;1.63;;;;;;;;;;4864704;29;20068;-79
2021/08/06 11:14:35;;;;;;;3.47;1.58;;;;;;;;;;4880941;29;20472;-80
2021/08/06 11:17:00;;;;;;;4.78;1.58;;;;;;;;;;4881055;29;20039;-80
2021/08/06 11:19:26;;;;;;;1.90;1.38;;;;;;;;;;4881326;29;20376;-80
2021/08/06 11:21:52;;;;;;;1.40;1.30;;;;;;;;;;4880995;29;20032;-79
2021/08/06 11:24:17;;;;;;;2.25;1.58;;;;;;;;;;4864302;29;20034;-80
2021/08/06 11:26:47;;;;;;;1.95;1.30;;;;;;;;;;4881271;29;20087;-80
2021/08/06 11:29:14;;;;;;;2.03;1.83;;;;;;;;;;4881072;29;20473;-80
2021/08/06 11:31:39;;;;;;;4.18;1.50;;;;;;;;;;4881164;29;20033;-78
2021/08/06 11:34:05;;;;;;;1.80;1.40;;;;;;;;;;4881096;29;20029;-87
2021/08/06 11:36:30;;;;;;;2.42;1.70;;;;;;;;;;4881239;29;20052;-83
2021/08/06 11:39:02;;;;;;;1.48;1.30;;;;;;;;;;4880948;29;20093;-85
2021/08/06 11:41:29;;;;;;;1.95;1.52;;;;;;;;;;4880551;29;20037;-84
2021/08/06 11:43:56;;;;;;;3.28;1.80;;;;;;;;;;4881237;29;20037;-91
2021/08/06 11:46:21;;;;;;;2.17;2.00;;;;;;;;;;4880728;29;20145;-85
2021/08/06 11:48:53;;;;;;;2.10;1.90;;;;;;;;;;4880969;29;20490;-85
2021/08/06 11:51:19;;;;;;;3.00;1.83;;;;;;;;;;4881008;29;20025;-90
2021/08/06 11:53:45;;;;;;;3.10;1.85;;;;;;;;;;4880593;29;20112;-85
2021/08/06 11:56:13;;;;;;;2.13;1.60;;;;;;;;;;4880514;29;20581;-83
2021/08/06 11:58:40;;;;;;;1.55;1.45;;;;;;;;;;4880878;29;20029;-83
2021/08/06 12:01:07;;;;;;;2.95;2.00;;;;;;;;;;4880413;29;20036;-82
2021/08/06 12:03:49;;;;;;;2.25;1.83;;;;;;;;;;4880362;29;20036;-85
2021/08/06 12:06:15;;;;;;;2.10;1.70;;;;;;;;;;4879733;29;20025;-86
2021/08/06 12:08:41;;;;;;;1.85;1.75;;;;;;;;;;4880161;29;20032;-86
2021/08/06 12:11:11;;;;;;;2.35;1.77;;;;;;;;;;4880475;29;20025;-85
2021/08/06 12:13:40;;;;;;;2.90;1.73;;;;;;;;;;4880239;29;20040;-84
2021/08/06 12:16:10;;;;;;;2.43;1.87;;;;;;;;;;4880245;29;20473;-85
2021/08/06 12:18:36;;;;;;;2.17;1.67;;;;;;;;;;4863272;29;20037;-87
2021/08/06 12:21:04;;;;;;;2.55;1.80;;;;;;;;;;4880088;29;20033;-83
2021/08/06 12:23:30;;;;;;;3.83;2.05;;;;;;;;;;4880206;29;20068;-86
2021/08/06 12:26:33;;;;;;;2.40;2.00;;;;;;;;;;4880263;29;20056;-85
2021/08/06 12:29:11;;;;;;;3.83;2.00;;;;;;;;;;4879244;29;20033;-84
2021/08/06 12:31:49;;;;;;;3.45;1.83;;;;;;;;;;4879970;29;20033;-85
2021/08/06 12:34:19;;;;;;;3.33;2.30;;;;;;;;;;4880209;29;20052;-87
2021/08/06 12:37:01;;;;;;;1.85;1.75;;;;;;;;;;4879927;29;20025;-85
2021/08/06 12:39:29;;;;;;;2.15;1.90;;;;;;;;;;4879724;29;20485;-84
2021/08/06 12:42:07;;;;;;;3.22;1.95;;;;;;;;;;4879422;29;20033;-85
2021/08/06 12:44:33;;;;;;;2.45;2.00;;;;;;;;;;4880003;29;20409;-84
2021/08/06 12:47:05;;;;;;;2.05;1.92;;;;;;;;;;4879791;29;20049;-86
2021/08/06 12:49:39;;;;;;;3.42;2.38;;;;;;;;;;4879761;29;20029;-85
2021/08/06 12:52:15;;;;;;;4.90;1.92;;;;;;;;;;4879683;29;20044;-85
2021/08/06 12:54:44;;;;;;;3.05;1.98;;;;;;;;;;4879904;29;20048;-85
2021/08/06 12:57:11;;;;;;;2.53;1.85;;;;;;;;;;4863171;29;20040;-86
2021/08/06 12:59:40;;;;;;;3.03;1.98;;;;;;;;;;4879808;29;20125;-85
2021/08/06 13:02:17;;;;;;;1.97;1.47;;;;;;;;;;4879852;29;20033;-87
2021/08/06 13:04:43;;;;;;;4.32;2.22;;;;;;;;;;4879547;29;20041;-84
2021/08/06 13:07:22;;;;;;;2.78;1.60;;;;;;;;;;4879872;29;20031;-87
2021/08/06 13:09:47;;;;;;;2.55;1.88;;;;;;;;;;4879661;29;20036;-84
2021/08/06 13:12:16;;;;;;;1.95;1.83;;;;;;;;;;4879720;29;20024;-85
2021/08/06 13:14:43;;;;;;;2.97;2.17;;;;;;;;;;4879828;29;20032;-85
2021/08/06 13:17:10;;;;;;;2.63;2.20;;;;;;;;;;4879751;29;20029;-84
2021/08/06 13:19:37;;;;;;;2.88;1.90;;;;;;;;;;4879805;29;20025;-85
2021/08/06 13:22:05;;;;;;;3.08;2.63;;;;;;;;;;4879509;29;20040;-84
2021/08/06 13:24:32;;;;;;;4.95;2.10;;;;;;;;;;4877922;29;20498;-87
2021/08/06 13:26:57;;;;;;;2.97;2.10;;;;;;;;;;4879034;29;20032;-81
2021/08/06 13:29:23;;;;;;;2.50;2.03;;;;;;;;;;4878376;29;20037;-88
2021/08/06 13:31:49;;;;;;;2.72;2.00;;;;;;;;;;4861758;29;20025;-84
2021/08/06 13:34:15;;;;;;;2.42;1.95;;;;;;;;;;4878712;29;20045;-89
2021/08/06 13:36:41;;;;;;;2.78;1.92;;;;;;;;;;4877982;29;20052;-86
2021/08/06 13:39:06;;;;;;;2.67;2.13;;;;;;;;;;4879259;29;20499;-84
2021/08/06 13:41:32;;;;;;;3.38;2.70;;;;;;;;;;4878483;29;20096;-80
2021/08/06 13:43:58;;;;;;;2.35;2.10;;;;;;;;;;4878835;29;20044;-80
2021/08/06 13:46:24;;;;;;;3.92;2.20;;;;;;;;;;4878583;29;20049;-81
2021/08/06 13:48:49;;;;;;;2.08;1.85;;;;;;;;;;4878459;29;20112;-80
2021/08/06 13:51:14;;;;;;;4.18;3.78;;;;;;;;;;4878879;29;20092;-80
2021/08/06 13:53:40;;;;;;;2.75;2.50;;;;;;;;;;4864903;29;20080;-80
2021/08/06 13:56:05;;;;;;;4.72;2.08;;;;;;;;;;4882533;29;20040;-80
2021/08/06 13:58:31;;;;;;;3.70;2.50;;;;;;;;;;4882682;29;20452;-80
2021/08/06 14:00:56;;;;;;;2.72;2.42;;;;;;;;;;4882545;29;20104;-80
2021/08/06 14:03:22;;;;;;;2.40;2.10;;;;;;;;;;4882500;29;20097;-80
2021/08/06 14:05:48;;;;;;;3.15;2.58;;;;;;;;;;4882554;29;20472;-80
2021/08/06 14:08:13;;;;;;;3.95;2.35;;;;;;;;;;4882426;29;20025;-80
2021/08/06 14:10:39;;;;;;;2.53;2.05;;;;;;;;;;4881863;29;20029;-79
2021/08/06 14:13:04;;;;;;;6.50;2.22;;;;;;;;;;4881751;29;20464;-79
2021/08/06 14:15:30;;;;;;;4.28;1.98;;;;;;;;;;4882234;29;20029;-79
2021/08/06 14:17:56;;;;;;;3.88;1.90;;;;;;;;;;4882436;29;20025;-80
2021/08/06 14:20:22;;;;;;;2.83;2.47;;;;;;;;;;4865506;29;20029;-80
2021/08/06 14:22:48;;;;;;;2.20;2.00;;;;;;;;;;4882248;29;20037;-79
2021/08/06 14:25:13;;;;;;;5.40;2.30;;;;;;;;;;4882152;29;20044;-79
2021/08/06 14:27:38;;;;;;;4.40;2.22;;;;;;;;;;4882107;29;20029;-79
2021/08/06 14:30:05;;;;;;;4.63;2.40;;;;;;;;;;4882262;29;20116;-79
2021/08/06 14:32:30;;;;;;;5.70;2.20;;;;;;;;;;4881893;29;20029;-79
2021/08/06 14:34:56;;;;;;;2.95;2.35;;;;;;;;;;4882037;29;20366;-79
2021/08/06 14:37:21;;;;;;;4.47;2.60;;;;;;;;;;4882163;29;20469;-79
2021/08/06 14:39:46;;;;;;;3.00;2.20;;;;;;;;;;4865378;29;20033;-79
2021/08/06 14:42:12;;;;;;;3.03;2.35;;;;;;;;;;4881790;29;20033;-79
2021/08/06 14:44:37;;;;;;;3.47;2.03;;;;;;;;;;4882064;29;20534;-79
2021/08/06 14:47:03;;;;;;;3.17;2.10;;;;;;;;;;4881286;29;20051;-79
2021/08/06 14:49:29;;;;;;;2.30;2.10;;;;;;;;;;4881493;29;20477;-79
2021/08/06 14:51:54;;;;;;;5.57;2.22;;;;;;;;;;4881523;29;20025;-79
2021/08/06 14:54:20;;;;;;;3.60;2.40;;;;;;;;;;4881878;29;20037;-79
2021/08/06 14:56:45;;;;;;;3.47;2.22;;;;;;;;;;4881792;29;20085;-79
2021/08/06 14:59:11;;;;;;;2.88;2.25;;;;;;;;;;4881833;29;20061;-79
2021/08/06 15:01:36;;;;;;;4.82;2.40;;;;;;;;;;4881376;29;20488;-79
2021/08/06 15:04:02;;;;;;;6.75;2.50;;;;;;;;;;4881206;29;20032;-79
2021/08/06 15:06:27;;;;;;;3.17;2.47;;;;;;;;;;4881630;29;20056;-79
2021/08/06 15:08:53;;;;;;;3.92;3.05;;;;;;;;;;4881671;29;20076;-79
2021/08/06 15:11:18;;;;;;;5.07;3.58;;;;;;;;;;4881211;29;20029;-79
2021/08/06 15:13:43;;;;;;;3.85;3.25;;;;;;;;;;4881517;29;20040;-79
2021/08/06 15:16:09;;;;;;;3.95;2.50;;;;;;;;;;4881216;29;20077;-79
2021/08/06 15:18:35;;;;;;;4.03;2.30;;;;;;;;;;4881370;29;20052;-79
2021/08/06 15:21:00;;;;;;;5.72;2.50;;;;;;;;;;4881322;29;20033;-79
2021/08/06 15:23:25;;;;;;;4.45;2.40;;;;;;;;;;4881223;29;20033;-79
2021/08/06 15:25:52;;;;;;;5.05;2.60;;;;;;;;;;4881003;29;20060;-78
2021/08/06 15:28:18;;;;;;;4.43;2.13;;;;;;;;;;4880365;29;20057;-79
2021/08/06 15:30:47;;;;;;;6.13;3.28;;;;;;;;;;4880595;29;20032;-80
2021/08/06 15:33:12;;;;;;;3.80;3.40;;;;;;;;;;4880801;29;20029;-80
2021/08/06 15:35:38;;;;;;;5.95;3.08;;;;;;;;;;4880728;29;20037;-79
2021/08/06 15:38:04;;;;;;;5.50;2.80;;;;;;;;;;4863992;29;20029;-79
2021/08/06 15:40:29;;;;;;;4.30;2.60;;;;;;;;;;4880911;29;20060;-77
2021/08/06 15:42:55;;;;;;;3.50;2.65;;;;;;;;;;4880764;29;20057;-79
2021/08/06 15:45:20;;;;;;;10.50;7.57;;;;;;;;;;4880835;29;20044;-78
2021/08/06 15:47:47;;;;;;;8.07;3.25;;;;;;;;;;4880426;29;20049;-79
2021/08/06 15:50:13;;;;;;;4.25;2.75;;;;;;;;;;4880602;29;20085;-80
2021/08/06 15:52:39;;;;;;;4.10;2.58;;;;;;;;;;4863354;29;20040;-80
2021/08/06 15:55:06;;;;;;;4.40;2.90;;;;;;;;;;4880050;29;20036;-80
2021/08/06 15:57:32;;;;;;;5.13;2.53;;;;;;;;;;4880495;29;20029;-79
2021/08/06 15:59:57;;;;;;;4.45;2.60;;;;;;;;;;4880529;29;20157;-79
2021/08/06 16:02:23;;;;;;;3.00;2.30;;;;;;;;;;4880460;29;20043;-80
2021/08/06 16:04:49;;;;;;;4.70;2.30;;;;;;;;;;4863548;29;20033;-79
2021/08/06 16:07:18;;;;;;;4.15;2.50;;;;;;;;;;4863655;29;20059;-79
2021/08/06 16:09:47;;;;;;;3.17;2.70;;;;;;;;;;4880313;29;20033;-79
2021/08/06 16:12:12;;;;;;;6.65;2.63;;;;;;;;;;4880499;29;20267;-79
2021/08/06 16:14:38;;;;;;;4.05;2.50;;;;;;;;;;4879895;29;20033;-80
2021/08/06 16:17:04;;;;;;;4.18;2.17;;;;;;;;;;4880091;29;20040;-79
2021/08/06 16:19:29;;;;;;;3.78;2.50;;;;;;;;;;4880275;29;20056;-79
2021/08/06 16:21:55;;;;;;;3.55;2.60;;;;;;;;;;4880109;29;20033;-79
2021/08/06 16:24:20;;;;;;;4.68;2.38;;;;;;;;;;4880746;29;20476;-79
2021/08/06 16:26:46;;;;;;;5.53;2.45;;;;;;;;;;4880173;29;20032;-79
2021/08/06 16:29:11;;;;;;;5.68;2.70;;;;;;;;;;4880077;29;20096;-79
2021/08/06 16:31:39;;;;;;;4.57;3.00;;;;;;;;;;4880034;29;20029;-79
2021/08/06 16:34:05;;;;;;;5.90;2.90;;;;;;;;;;4899136;23;20400;-79
2021/08/06 16:36:30;;;;;;;4.43;2.63;;;;;;;;;;4899781;29;20032;-80
2021/08/06 16:38:57;;;;;;;3.38;2.63;;;;;;;;;;4898847;29;20380;-80
2021/08/06 16:41:22;;;;;;;3.25;2.53;;;;;;;;;;4882034;29;20174;-80
2021/08/06 16:43:48;;;;;;;3.53;2.53;;;;;;;;;;4897420;29;20092;-80
2021/08/06 16:46:13;;;;;;;3.20;2.67;;;;;;;;;;4898525;29;20028;-80
2021/08/06 16:48:39;;;;;;;5.25;2.63;;;;;;;;;;4898467;29;20029;-80
2021/08/06 16:51:05;;;;;;;3.70;2.67;;;;;;;;;;4898938;29;20025;-80
2021/08/06 16:53:34;;;;;;;4.00;3.03;;;;;;;;;;4898470;29;20486;-80
2021/08/06 16:55:59;;;;;;;5.63;2.72;;;;;;;;;;4898733;29;20080;-81
2021/08/06 16:58:25;;;;;;;4.90;2.63;;;;;;;;;;4900740;29;20029;-89
2021/08/06 17:00:51;;;;;;;6.85;3.33;;;;;;;;;;4913276;29;20024;-90
2021/08/06 17:03:18;;;;;;;4.35;2.33;;;;;;;;;;4903692;29;20064;-84
2021/08/06 17:05:45;;;;;;;9.20;2.60;;;;;;;;;;4900962;29;20036;-82
2021/08/06 17:08:11;;;;;;;3.47;2.72;;;;;;;;;;4897469;29;20111;-82
2021/08/06 17:10:36;;;;;;;4.28;2.58;;;;;;;;;;4898308;29;20088;-80
2021/08/06 17:13:02;;;;;;;3.10;2.50;;;;;;;;;;4895310;29;20083;-82
2021/08/06 17:15:28;;;;;;;5.20;2.70;;;;;;;;;;4898384;29;20499;-80
2021/08/06 17:17:54;;;;;;;5.35;2.78;;;;;;;;;;4897923;29;20057;-82
2021/08/06 17:20:20;;;;;;;4.28;3.20;;;;;;;;;;4898329;29;20029;-81
2021/08/06 17:22:46;;;;;;;6.63;3.40;;;;;;;;;;4898140;29;20121;-81
2021/08/06 17:25:12;;;;;;;4.97;3.17;;;;;;;;;;4898023;29;20063;-79
2021/08/06 17:27:37;;;;;;;4.97;4.05;;;;;;;;;;4902530;29;20380;-82
2021/08/06 17:30:04;;;;;;;5.15;3.22;;;;;;;;;;4904499;29;20132;-92
2021/08/06 17:32:30;;;;;;;3.15;2.85;;;;;;;;;;4903899;29;20442;-85
2021/08/06 17:34:55;;;;;;;3.88;3.03;;;;;;;;;;4915853;29;20116;-83
2021/08/06 17:37:21;;;;;;;4.95;4.10;;;;;;;;;;4905623;29;20055;-85
2021/08/06 17:39:47;;;;;;;7.25;4.50;;;;;;;;;;4906866;29;20096;-84
2021/08/06 17:42:12;;;;;;;6.93;2.60;;;;;;;;;;4921115;29;20024;-81
2021/08/06 17:44:38;;;;;;;5.65;3.05;;;;;;;;;;4920881;29;20435;-85
2021/08/06 17:47:04;;;;;;;4.80;3.20;;;;;;;;;;4920524;29;20032;-85
2021/08/06 17:49:30;;;;;;;7.05;2.70;;;;;;;;;;4920454;29;20024;-88
2021/08/06 17:51:56;;;;;;;5.63;2.75;;;;;;;;;;4903664;29;20021;-89
2021/08/06 17:54:21;;;;;;;3.17;2.88;;;;;;;;;;4921191;29;20028;-87
2021/08/06 17:56:47;;;;;;;4.60;2.85;;;;;;;;;;4920672;29;20098;-86
2021/08/06 17:59:12;;;;;;;5.72;2.83;;;;;;;;;;4921259;29;20067;-87
2021/08/06 18:01:39;;;;;;;3.65;2.55;;;;;;;;;;4920666;29;20080;-77
2021/08/06 18:04:04;;;;;;;8.23;2.97;;;;;;;;;;4920346;29;20047;-78
2021/08/06 18:06:30;;;;;;;4.18;3.13;;;;;;;;;;4920165;29;20032;-79
2021/08/06 18:08:56;;;;;;;5.07;3.00;;;;;;;;;;4920144;29;20464;-77
2021/08/06 18:11:22;;;;;;;5.03;2.95;;;;;;;;;;4902887;29;20028;-78
2021/08/06 18:13:48;;;;;;;4.70;2.95;;;;;;;;;;4920086;29;20039;-78
2021/08/06 18:16:14;;;;;;;4.20;2.70;;;;;;;;;;4919797;29;20495;-76
2021/08/06 18:18:40;;;;;;;3.08;2.78;;;;;;;;;;4919526;29;20028;-78
2021/08/06 18:21:06;;;;;;;7.03;3.20;;;;;;;;;;4916411;29;20084;-78
2021/08/06 18:23:31;;;;;;;6.35;2.33;;;;;;;;;;4893471;29;20037;-79
2021/08/06 18:25:57;;;;;;;4.00;2.80;;;;;;;;;;4900669;29;20028;-81
2021/08/06 18:28:23;;;;;;;6.80;2.80;;;;;;;;;;4900788;29;20036;-81
2021/08/06 18:30:50;;;;;;;3.83;3.15;;;;;;;;;;4913790;29;20032;-79
2021/08/06 18:33:15;;;;;;;5.93;3.05;;;;;;;;;;4919469;29;20028;-79
2021/08/06 18:35:41;;;;;;;5.57;2.75;;;;;;;;;;4918658;29;20161;-79
2021/08/06 18:38:06;;;;;;;3.17;2.60;;;;;;;;;;4914411;29;20071;-79
2021/08/06 18:40:32;;;;;;;9.55;2.92;;;;;;;;;;4900588;29;20091;-79
2021/08/06 18:42:58;;;;;;;10.70;2.83;;;;;;;;;;4900400;29;20035;-77
2021/08/06 18:45:23;;;;;;;4.85;2.70;;;;;;;;;;4909416;29;20035;-79
2021/08/06 18:47:52;;;;;;;4.25;2.80;;;;;;;;;;4917907;29;20036;-79
2021/08/06 18:50:19;;;;;;;8.63;3.40;;;;;;;;;;4918148;29;20043;-81
2021/08/06 18:52:45;;;;;;;6.38;3.10;;;;;;;;;;4918370;29;20039;-79
2021/08/06 18:55:11;;;;;;;6.30;2.85;;;;;;;;;;4918582;29;20032;-84
2021/08/06 18:57:37;;;;;;;7.53;2.60;;;;;;;;;;4918583;29;20610;-78
2021/08/06 19:00:04;;;;;;;5.47;3.15;;;;;;;;;;4918512;29;20020;-83
2021/08/06 19:02:31;;;;;;;7.88;2.60;;;;;;;;;;4918465;29;20390;-80
2021/08/06 19:04:56;;;;;;;3.72;2.90;;;;;;;;;;4899163;29;20066;-85
2021/08/06 19:07:22;;;;;;;5.22;2.80;;;;;;;;;;4918654;29;20052;-83
2021/08/06 19:09:47;;;;;;;5.15;2.88;;;;;;;;;;4918763;29;20044;-87
2021/08/06 19:12:12;;;;;;;3.92;2.70;;;;;;;;;;4918735;29;20107;-84
2021/08/06 19:14:38;;;;;;;4.65;3.22;;;;;;;;;;4918837;29;20031;-84
2021/08/06 19:17:04;;;;;;;3.83;2.60;;;;;;;;;;4918737;29;20092;-83
2021/08/06 19:19:30;;;;;;;6.40;3.10;;;;;;;;;;4918417;29;20024;-84
2021/08/06 19:21:56;;;;;;;5.93;2.83;;;;;;;;;;4918238;29;20031;-80
2021/08/06 19:24:21;;;;;;;6.43;3.00;;;;;;;;;;4918655;29;20431;-84
2021/08/06 19:26:49;;;;;;;6.07;2.65;;;;;;;;;;4919009;29;20455;-85
2021/08/06 19:29:16;;;;;;;6.82;3.38;;;;;;;;;;4918873;29;20067;-84
2021/08/06 19:31:43;;;;;;;6.07;3.28;;;;;;;;;;4925100;29;20024;-85
2021/08/06 19:34:09;;;;;;;5.35;2.58;;;;;;;;;;4926593;29;20138;-84
2021/08/06 19:36:37;;;;;;;5.88;2.63;;;;;;;;;;4919209;29;20051;-85
2021/08/06 19:39:04;;;;;;;5.93;2.90;;;;;;;;;;4919219;29;20024;-85
2021/08/06 19:41:29;;;;;;;5.20;2.88;;;;;;;;;;4918357;29;20109;-84
2021/08/06 19:43:55;;;;;;;8.30;2.70;;;;;;;;;;4918307;29;20112;-84
2021/08/06 19:46:24;;;;;;;6.03;2.60;;;;;;;;;;4918377;29;20395;-84
2021/08/06 19:48:50;;;;;;;5.25;2.80;;;;;;;;;;4912352;29;20039;-82
2021/08/06 19:51:15;;;;;;;4.20;2.40;;;;;;;;;;4900180;29;20024;-86
2021/08/06 19:53:41;;;;;;;4.30;2.53;;;;;;;;;;4901199;29;20024;-85
2021/08/06 19:56:12;;;;;;;4.30;2.78;;;;;;;;;;4918278;29;20040;-86
2021/08/06 19:58:41;;;;;;;3.50;2.45;;;;;;;;;;4917952;29;20024;-83
2021/08/06 20:01:08;;;;;;;3.70;2.97;;;;;;;;;;4917691;29;20071;-79
2021/08/06 20:03:35;;;;;;;4.10;2.63;;;;;;;;;;4917961;29;20035;-86
2021/08/06 20:06:01;;;;;;;8.45;2.83;;;;;;;;;;4918322;29;20028;-87
2021/08/06 20:08:26;;;;;;;5.57;2.80;;;;;;;;;;4918145;29;20024;-87
2021/08/06 20:10:52;;;;;;;5.28;2.83;;;;;;;;;;4918872;29;20044;-88
2021/08/06 20:13:18;;;;;;;3.35;3.03;;;;;;;;;;4902582;29;20115;-87
2021/08/06 20:15:43;;;;;;;3.85;3.22;;;;;;;;;;4918159;29;20063;-86
2021/08/06 20:18:09;;;;;;;3.75;3.00;;;;;;;;;;4917944;29;20028;-84
2021/08/06 20:20:34;;;;;;;3.83;2.90;;;;;;;;;;4918050;29;20107;-86
2021/08/06 20:23:00;;;;;;;4.57;2.83;;;;;;;;;;4918192;29;20040;-87
2021/08/06 20:25:25;;;;;;;4.60;2.60;;;;;;;;;;4918137;29;20033;-85
2021/08/06 20:27:52;;;;;;;6.43;2.85;;;;;;;;;;4918001;29;20560;-84
2021/08/06 20:30:19;;;;;;;4.75;2.90;;;;;;;;;;4918145;29;20036;-86
2021/08/06 20:32:45;;;;;;;5.80;3.10;;;;;;;;;;4917780;29;20457;-84
2021/08/06 20:35:10;;;;;;;5.60;2.58;;;;;;;;;;4917510;29;20123;-80
2021/08/06 20:37:37;;;;;;;4.72;2.85;;;;;;;;;;4918154;29;20093;-83
2021/08/06 20:40:03;;;;;;;4.32;2.65;;;;;;;;;;4917592;29;20494;-86
2021/08/06 20:42:29;;;;;;;6.28;2.90;;;;;;;;;;4917260;29;20040;-86
2021/08/06 20:44:54;;;;;;;5.63;2.63;;;;;;;;;;4917588;29;20149;-85
2021/08/06 20:47:19;;;;;;;6.40;2.80;;;;;;;;;;4917706;29;20028;-86
2021/08/06 20:49:45;;;;;;;5.05;2.88;;;;;;;;;;4917464;29;20032;-86